Shinsei Maru — JI3623 — position and weather

sailwx.info

Track history (hours):
 
Tides and Currents Weather Stations Pressure Air Temp Water Temp Dewpoint Dewpoint Depression Visibility Wind Speed Wind Dir Waves Ship Positions

Shinsei Maru

Last reported at 2017-Oct-15 05:08 UTC. Time now 2017-Oct-18 11:10 UTC.
Position N 34°37' E 134°56'.

Length 86 m; draft 5.5 m.

Type: Tanker. MMSI: 431300454.

Date/timePositionNaut miles runAvg speedWind from/ knotsBaromVisibWave heightAir tempDewpointWater temp
2017-Oct-15 05:08N 34°37' E 134°56'411.7
2017-Oct-15 04:46N 34°37' E 135°01'310.9
2017-Oct-15 04:30N 34°36' E 135°04'611.3
2017-Oct-15 04:00N 34°35' E 135°11'612.0
2017-Oct-15 03:30N 34°34' E 135°18'611.5
2017-Oct-15 02:59N 34°33' E 135°25'0 0.1
2017-Oct-14 23:33N 34°33' E 135°26'0 0.0
2017-Oct-14 23:30N 34°33' E 135°26'1 1.4
2017-Oct-14 23:00N 34°33' E 135°25'3 6.8
2017-Oct-14 22:30N 34°33' E 135°21'1 0.9
2017-Oct-14 21:53N 34°32' E 135°20'0 1.2
2017-Oct-14 21:30N 34°32' E 135°20'4 9.1
2017-Oct-14 21:00N 34°27' E 135°21'0 0.0
2017-Oct-14 14:58N 34°27' E 135°21'0 0.0
2017-Oct-14 00:09N 34°27' E 135°21'0 0.4
2017-Oct-14 00:00N 34°27' E 135°21'1 1.6
2017-Oct-13 23:30N 34°28' E 135°21'4 7.5
2017-Oct-13 23:00N 34°29' E 135°17'510.6
2017-Oct-13 22:30N 34°31' E 135°11'612.6
2017-Oct-13 22:00N 34°35' E 135°05'811.5
2017-Oct-13 21:18N 34°36' E 134°55'  
Track history (hours):
 
Tides and Currents Weather Stations Pressure Air Temp Water Temp Dewpoint Dewpoint Depression Visibility Wind Speed Wind Dir Waves Ship Positions

Shinsei Maru

Last reported at 2017-Oct-15 05:08 UTC. Time now 2017-Oct-18 11:10 UTC.
Position N 34°37' E 134°56'.

Length 86 m; draft 5.5 m.

Type: Tanker. MMSI: 431300454.

Date/timePositionNaut miles runAvg speedWind from/ knotsBaromVisibWave heightAir tempDewpointWater temp
2017-Oct-15 05:08N 34°37' E 134°56'411.7
2017-Oct-15 04:46N 34°37' E 135°01'310.9
2017-Oct-15 04:30N 34°36' E 135°04'611.3
2017-Oct-15 04:00N 34°35' E 135°11'612.0
2017-Oct-15 03:30N 34°34' E 135°18'611.5
2017-Oct-15 02:59N 34°33' E 135°25'0 0.1
2017-Oct-14 23:33N 34°33' E 135°26'0 0.0
2017-Oct-14 23:30N 34°33' E 135°26'1 1.4
2017-Oct-14 23:00N 34°33' E 135°25'3 6.8
2017-Oct-14 22:30N 34°33' E 135°21'1 0.9
2017-Oct-14 21:53N 34°32' E 135°20'0 1.2
2017-Oct-14 21:30N 34°32' E 135°20'4 9.1
2017-Oct-14 21:00N 34°27' E 135°21'0 0.0
2017-Oct-14 14:58N 34°27' E 135°21'0 0.0
2017-Oct-14 00:09N 34°27' E 135°21'0 0.4
2017-Oct-14 00:00N 34°27' E 135°21'1 1.6
2017-Oct-13 23:30N 34°28' E 135°21'4 7.5
2017-Oct-13 23:00N 34°29' E 135°17'510.6
2017-Oct-13 22:30N 34°31' E 135°11'612.6
2017-Oct-13 22:00N 34°35' E 135°05'811.5
2017-Oct-13 21:18N 34°36' E 134°55'  

Dump ship's entire track history